createdAt,value
2019-02-28T00:00:37.226Z,11.00
2019-02-28T00:01:37.492Z,11.00
2019-02-28T00:02:38.580Z,11.00
2019-02-28T00:03:39.591Z,10.90
2019-02-28T00:04:40.600Z,10.90
2019-02-28T00:05:41.630Z,10.90
2019-02-28T00:06:44.005Z,10.90
2019-02-28T00:07:45.551Z,10.90
2019-02-28T00:08:46.567Z,10.90
2019-02-28T00:09:47.602Z,10.90
2019-02-28T00:10:48.896Z,10.90
2019-02-28T00:11:49.914Z,10.80
2019-02-28T00:12:50.911Z,10.80
2019-02-28T00:13:52.391Z,10.80
2019-02-28T00:14:54.878Z,10.80
2019-02-28T00:15:55.880Z,10.70
2019-02-28T00:16:56.896Z,10.70
2019-02-28T00:17:57.915Z,10.70
2019-02-28T00:18:58.937Z,10.70
2019-02-28T00:19:59.944Z,10.70
2019-02-28T00:21:06.110Z,10.60
2019-02-28T00:22:04.847Z,10.60
2019-02-28T00:23:05.863Z,10.60
2019-02-28T00:24:06.878Z,10.50
2019-02-28T00:25:08.910Z,10.50
2019-02-28T00:26:11.648Z,10.50
2019-02-28T00:27:12.830Z,10.50
2019-02-28T00:28:13.839Z,10.40
2019-02-28T00:29:14.851Z,10.40
2019-02-28T00:30:15.872Z,10.40
2019-02-28T00:31:16.885Z,10.30
2019-02-28T00:32:17.901Z,10.30
2019-02-28T00:33:18.911Z,10.30
2019-02-28T00:34:19.930Z,10.20
2019-02-28T00:35:20.957Z,10.20
2019-02-28T00:36:21.960Z,10.10
2019-02-28T00:37:24.652Z,10.10
2019-02-28T00:38:29.465Z,10.10
2019-02-28T00:39:31.451Z,10.00
2019-02-28T00:40:31.777Z,10.00
2019-02-28T00:41:32.794Z,10.00
2019-02-28T00:42:33.805Z,10.00
2019-02-28T00:43:34.827Z,10.00
2019-02-28T00:44:35.839Z,10.00
2019-02-28T00:45:37.358Z,10.00
2019-02-28T00:46:44.061Z,9.90
2019-02-28T00:47:41.497Z,10.00
2019-02-28T00:48:42.524Z,9.90
2019-02-28T00:49:43.548Z,9.90
2019-02-28T00:50:44.561Z,9.90
2019-02-28T00:51:45.593Z,9.90
2019-02-28T00:52:46.608Z,9.90
2019-02-28T00:53:47.620Z,9.80
2019-02-28T00:54:48.629Z,9.80
2019-02-28T00:55:49.648Z,9.80
2019-02-28T00:56:52.517Z,9.80
2019-02-28T00:57:55.383Z,9.80
2019-02-28T00:58:56.568Z,9.80
2019-02-28T00:59:57.619Z,9.70
2019-02-28T01:00:58.643Z,9.70
2019-02-28T01:01:59.652Z,9.70
2019-02-28T01:03:00.671Z,9.70
2019-02-28T01:04:01.692Z,9.70
2019-02-28T01:05:06.037Z,9.60
2019-02-28T01:06:10.575Z,9.50
2019-02-28T01:07:10.352Z,9.50
2019-02-28T01:08:11.770Z,9.50
2019-02-28T01:09:12.775Z,9.50
2019-02-28T01:10:14.096Z,9.40
2019-02-28T01:11:15.127Z,9.40
2019-02-28T01:12:19.199Z,9.40
2019-02-28T01:13:19.364Z,9.40
2019-02-28T01:14:20.379Z,9.40
2019-02-28T01:15:21.401Z,9.40
2019-02-28T01:16:22.433Z,9.30
2019-02-28T01:17:24.110Z,9.30
2019-02-28T01:18:26.404Z,9.30
2019-02-28T01:19:27.412Z,9.30
2019-02-28T01:20:28.424Z,9.30
2019-02-28T01:21:29.447Z,9.30
2019-02-28T01:22:30.462Z,9.30
2019-02-28T01:23:31.472Z,9.30
2019-02-28T01:24:34.779Z,9.30
2019-02-28T01:25:37.162Z,9.30
2019-02-28T01:26:38.329Z,9.30
2019-02-28T01:27:39.335Z,9.30
2019-02-28T01:28:40.347Z,9.30
2019-02-28T01:29:41.364Z,9.30
2019-02-28T01:30:42.383Z,9.30
2019-02-28T01:31:43.487Z,9.30
2019-02-28T01:32:49.994Z,9.30
2019-02-28T01:33:47.443Z,9.30
2019-02-28T01:34:48.453Z,9.30
2019-02-28T01:35:49.464Z,9.30
2019-02-28T01:36:50.488Z,9.30
2019-02-28T01:37:52.346Z,9.30
2019-02-28T01:38:57.787Z,9.30
2019-02-28T01:39:56.928Z,9.30
2019-02-28T01:40:57.945Z,9.20
2019-02-28T01:41:58.982Z,9.30
2019-02-28T01:42:59.980Z,9.30
2019-02-28T01:44:02.709Z,9.20
2019-02-28T01:45:07.011Z,9.20
2019-02-28T01:46:09.468Z,9.20
2019-02-28T01:47:10.488Z,9.20
2019-02-28T01:48:11.680Z,9.20
2019-02-28T01:49:12.692Z,9.30
2019-02-28T01:50:13.711Z,9.20
2019-02-28T01:51:14.720Z,9.20
2019-02-28T01:52:15.744Z,9.30
2019-02-28T01:53:19.584Z,9.30
2019-02-28T01:54:19.687Z,9.30
2019-02-28T01:55:20.703Z,9.30
2019-02-28T01:56:21.944Z,9.40
2019-02-28T01:57:22.969Z,9.40
2019-02-28T01:58:23.976Z,9.40
2019-02-28T01:59:25.414Z,9.40
2019-02-28T02:00:26.431Z,9.30
2019-02-28T02:01:28.478Z,9.30
2019-02-28T02:02:30.364Z,9.30
2019-02-28T02:03:31.384Z,9.30
2019-02-28T02:04:32.408Z,9.30
2019-02-28T02:05:33.508Z,9.30
2019-02-28T02:06:34.524Z,9.30
2019-02-28T02:07:36.009Z,9.30
2019-02-28T02:08:37.809Z,9.20
2019-02-28T02:09:42.595Z,9.20
2019-02-28T02:10:42.477Z,9.20
2019-02-28T02:11:43.489Z,9.20
2019-02-28T02:12:44.503Z,9.20
2019-02-28T02:13:45.539Z,9.20
2019-02-28T02:14:46.561Z,9.20
2019-02-28T02:15:50.941Z,9.20
2019-02-28T02:16:50.490Z,9.20
2019-02-28T02:17:51.516Z,9.20
2019-02-28T02:18:52.532Z,9.20
2019-02-28T02:19:53.537Z,9.20
2019-02-28T02:20:54.543Z,9.20
2019-02-28T02:21:55.640Z,9.20
2019-02-28T02:22:56.663Z,9.30
2019-02-28T02:23:57.912Z,9.30
2019-02-28T02:24:59.382Z,9.30
2019-02-28T02:26:01.839Z,9.30
2019-02-28T02:27:02.856Z,9.20
2019-02-28T02:28:03.887Z,9.20
2019-02-28T02:29:04.897Z,9.20
2019-02-28T02:30:15.101Z,9.30
2019-02-28T02:31:15.132Z,9.20
2019-02-28T02:32:16.164Z,9.20
2019-02-28T02:33:17.182Z,9.20
2019-02-28T02:34:18.188Z,9.20
2019-02-28T02:35:19.197Z,9.20
2019-02-28T02:36:20.209Z,9.20
2019-02-28T02:37:21.227Z,9.20
2019-02-28T02:38:22.244Z,9.10
2019-02-28T02:39:23.279Z,9.20
2019-02-28T02:40:24.389Z,9.10
2019-02-28T02:41:25.444Z,9.10
2019-02-28T02:42:26.459Z,9.10
2019-02-28T02:43:27.480Z,9.10
2019-02-28T02:44:31.762Z,9.10
2019-02-28T02:45:31.403Z,9.10
2019-02-28T02:46:32.425Z,9.10
2019-02-28T02:47:33.869Z,9.10
2019-02-28T02:48:38.567Z,9.00
2019-02-28T02:49:37.801Z,9.00
2019-02-28T02:50:38.813Z,9.00
2019-02-28T02:51:39.833Z,9.00
2019-02-28T02:52:41.223Z,9.00
2019-02-28T02:53:43.319Z,8.90
2019-02-28T02:54:44.658Z,8.90
2019-02-28T02:55:45.701Z,8.90
2019-02-28T02:56:46.709Z,8.90
2019-02-28T02:57:51.804Z,8.90
2019-02-28T02:58:50.648Z,8.90
2019-02-28T02:59:51.662Z,8.80
2019-02-28T03:00:52.672Z,8.90
2019-02-28T03:01:56.195Z,8.80
2019-02-28T03:02:56.603Z,8.80
2019-02-28T03:03:57.609Z,8.80
2019-02-28T03:04:59.531Z,8.80
2019-02-28T03:06:00.737Z,8.70
2019-02-28T03:07:01.745Z,8.70
2019-02-28T03:08:02.772Z,8.70
2019-02-28T03:09:04.981Z,8.70
2019-02-28T03:10:09.003Z,8.70
2019-02-28T03:11:10.016Z,8.70
2019-02-28T03:12:11.034Z,8.70
2019-02-28T03:13:12.049Z,8.60
2019-02-28T03:14:16.348Z,8.60
2019-02-28T03:15:17.001Z,8.60
2019-02-28T03:16:18.060Z,8.60
2019-02-28T03:17:19.070Z,8.60
2019-02-28T03:18:20.843Z,8.60
2019-02-28T03:19:22.807Z,8.60
2019-02-28T03:20:23.821Z,8.60
2019-02-28T03:21:24.827Z,8.60
2019-02-28T03:22:29.911Z,8.50
2019-02-28T03:23:28.776Z,8.50
2019-02-28T03:24:29.784Z,8.50
2019-02-28T03:25:30.798Z,8.50
2019-02-28T03:26:31.814Z,8.50
2019-02-28T03:27:32.825Z,8.50
2019-02-28T03:28:33.854Z,8.50
2019-02-28T03:29:34.989Z,8.40
2019-02-28T03:30:36.021Z,8.40
2019-02-28T03:31:37.023Z,8.50
2019-02-28T03:32:42.025Z,8.50
2019-02-28T03:33:40.989Z,8.50
2019-02-28T03:34:55.001Z,8.50
2019-02-28T03:35:44.914Z,8.50
2019-02-28T03:36:55.341Z,8.50
2019-02-28T03:37:48.849Z,8.50
2019-02-28T03:38:50.121Z,8.40
2019-02-28T03:39:51.274Z,8.40
2019-02-28T03:40:52.281Z,8.40
2019-02-28T03:41:54.258Z,8.40
2019-02-28T03:42:55.543Z,8.40
2019-02-28T03:43:56.627Z,8.40
2019-02-28T03:44:58.229Z,8.40
2019-02-28T03:45:59.549Z,8.40
2019-02-28T03:47:00.580Z,8.40
2019-02-28T03:48:01.587Z,8.40
2019-02-28T03:49:02.797Z,8.40
2019-02-28T03:50:04.922Z,8.40
2019-02-28T03:51:05.934Z,8.40
2019-02-28T03:52:07.045Z,8.30
2019-02-28T03:53:08.072Z,8.30
2019-02-28T03:54:09.088Z,8.30
2019-02-28T03:55:12.511Z,8.30
2019-02-28T03:56:14.679Z,8.30
2019-02-28T03:57:16.730Z,8.30
2019-02-28T03:58:17.852Z,8.30
2019-02-28T03:59:20.161Z,8.30
2019-02-28T04:00:22.313Z,8.20
2019-02-28T04:01:23.317Z,8.20
2019-02-28T04:02:24.333Z,8.20
2019-02-28T04:03:25.355Z,8.20
2019-02-28T04:04:26.481Z,8.20
2019-02-28T04:05:28.420Z,8.20
2019-02-28T04:06:29.710Z,8.20
2019-02-28T04:07:30.741Z,8.20
2019-02-28T04:08:31.790Z,8.20
2019-02-28T04:09:32.799Z,8.20
2019-02-28T04:10:33.817Z,8.20
2019-02-28T04:11:34.867Z,8.20
2019-02-28T04:12:36.213Z,8.20
2019-02-28T04:13:37.236Z,8.20
2019-02-28T04:14:38.257Z,8.30
2019-02-28T04:15:43.276Z,8.20
2019-02-28T04:16:42.200Z,8.30
2019-02-28T04:17:43.289Z,8.30
2019-02-28T04:18:46.366Z,8.20
2019-02-28T04:19:47.221Z,8.20
2019-02-28T04:20:48.236Z,8.20
2019-02-28T04:21:49.249Z,8.20
2019-02-28T04:22:50.265Z,8.10
2019-02-28T04:23:51.445Z,8.20
2019-02-28T04:24:52.471Z,8.10
2019-02-28T04:25:56.827Z,8.10
2019-02-28T04:26:56.392Z,8.20
2019-02-28T04:27:57.401Z,8.20
2019-02-28T04:28:58.429Z,8.10
2019-02-28T04:30:06.598Z,8.10
2019-02-28T04:31:02.354Z,8.10
2019-02-28T04:32:03.356Z,8.10
2019-02-28T04:33:04.364Z,8.10
2019-02-28T04:34:05.408Z,8.10
2019-02-28T04:35:06.821Z,8.10
2019-02-28T04:36:07.852Z,8.10
2019-02-28T04:37:09.748Z,8.20
2019-02-28T04:38:10.872Z,8.20
2019-02-28T04:39:11.896Z,8.20
2019-02-28T04:40:12.909Z,8.20
2019-02-28T04:41:13.919Z,8.20
2019-02-28T04:42:14.943Z,8.20
2019-02-28T04:43:15.964Z,8.20
2019-02-28T04:44:18.280Z,8.20
2019-02-28T04:45:20.040Z,8.30
2019-02-28T04:46:21.063Z,8.30
2019-02-28T04:47:22.071Z,8.20
2019-02-28T04:48:23.079Z,8.20
2019-02-28T04:49:24.104Z,8.20
2019-02-28T04:50:25.125Z,8.20
2019-02-28T04:51:26.136Z,8.20
2019-02-28T04:52:27.139Z,8.20
2019-02-28T04:53:28.151Z,8.10
2019-02-28T04:54:29.177Z,8.10
2019-02-28T04:55:30.732Z,8.10
2019-02-28T04:56:31.824Z,8.00
2019-02-28T04:57:32.836Z,8.10
2019-02-28T04:58:33.848Z,8.10
2019-02-28T04:59:34.953Z,8.00
2019-02-28T05:00:37.819Z,8.00
2019-02-28T05:01:38.912Z,8.00
2019-02-28T05:02:39.925Z,7.90
2019-02-28T05:03:40.952Z,8.00
2019-02-28T05:04:41.966Z,8.00
2019-02-28T05:05:46.608Z,8.00
2019-02-28T05:06:46.310Z,8.00
2019-02-28T05:07:47.324Z,8.10
2019-02-28T05:08:48.332Z,8.10
2019-02-28T05:09:49.364Z,8.00
2019-02-28T05:10:55.658Z,8.00
2019-02-28T05:11:53.288Z,8.00
2019-02-28T05:12:54.309Z,8.00
2019-02-28T05:13:55.330Z,8.00
2019-02-28T05:14:58.367Z,8.00
2019-02-28T05:15:59.328Z,8.00
2019-02-28T05:17:00.430Z,8.00
2019-02-28T05:18:01.452Z,8.00
2019-02-28T05:19:02.492Z,8.00
2019-02-28T05:20:07.293Z,8.00
2019-02-28T05:21:09.100Z,8.00
2019-02-28T05:22:10.116Z,8.00
2019-02-28T05:23:11.128Z,8.00
2019-02-28T05:24:12.152Z,8.00
2019-02-28T05:25:17.621Z,8.00
2019-02-28T05:26:16.100Z,8.00
2019-02-28T05:27:17.105Z,8.00
2019-02-28T05:28:18.324Z,8.00
2019-02-28T05:29:19.638Z,8.00
2019-02-28T05:30:20.775Z,8.00
2019-02-28T05:31:24.141Z,8.00
2019-02-28T05:32:24.716Z,8.00
2019-02-28T05:33:25.729Z,8.00
2019-02-28T05:34:26.736Z,7.90
2019-02-28T05:35:27.764Z,7.90
2019-02-28T05:36:28.773Z,8.00
2019-02-28T05:37:29.785Z,7.90
2019-02-28T05:38:30.820Z,7.90
2019-02-28T05:39:31.837Z,8.00
2019-02-28T05:40:32.861Z,7.90
2019-02-28T05:41:33.881Z,7.90
2019-02-28T05:42:34.895Z,7.90
2019-02-28T05:43:35.940Z,7.90
2019-02-28T05:44:37.449Z,7.90
2019-02-28T05:45:39.886Z,7.90
2019-02-28T05:46:40.912Z,7.90
2019-02-28T05:47:46.388Z,7.90
2019-02-28T05:48:44.854Z,7.90
2019-02-28T05:49:45.911Z,7.90
2019-02-28T05:50:50.021Z,7.90
2019-02-28T05:51:49.852Z,7.90
2019-02-28T05:52:50.865Z,7.90
2019-02-28T05:53:51.876Z,7.90
2019-02-28T05:54:52.908Z,7.90
2019-02-28T05:55:58.824Z,7.90
2019-02-28T05:56:57.680Z,7.90
2019-02-28T05:57:58.703Z,7.90
2019-02-28T05:58:59.734Z,7.90
2019-02-28T06:00:01.918Z,7.90
2019-02-28T06:01:05.516Z,8.00
2019-02-28T06:02:06.695Z,8.00
2019-02-28T06:03:07.713Z,8.00
2019-02-28T06:04:08.736Z,8.10
2019-02-28T06:05:11.861Z,8.10
2019-02-28T06:06:12.680Z,8.10
2019-02-28T06:07:13.696Z,8.10
2019-02-28T06:08:14.711Z,8.10
2019-02-28T06:09:15.760Z,8.10
2019-02-28T06:10:16.837Z,8.10
2019-02-28T06:11:17.880Z,8.10
2019-02-28T06:12:18.894Z,8.10
2019-02-28T06:13:19.920Z,8.10
2019-02-28T06:14:26.689Z,8.10
2019-02-28T06:15:23.912Z,8.10
2019-02-28T06:16:24.932Z,8.20
2019-02-28T06:17:25.944Z,8.20
2019-02-28T06:18:32.507Z,8.20
2019-02-28T06:19:29.876Z,8.20
2019-02-28T06:20:30.884Z,8.20
2019-02-28T06:21:31.909Z,8.20
2019-02-28T06:22:36.195Z,8.20
2019-02-28T06:23:36.173Z,8.20
2019-02-28T06:24:37.190Z,8.20
2019-02-28T06:25:38.204Z,8.20
2019-02-28T06:26:39.219Z,8.20
2019-02-28T06:27:41.917Z,8.20
2019-02-28T06:28:43.265Z,8.20
2019-02-28T06:29:44.295Z,8.20
2019-02-28T06:30:45.640Z,8.20
2019-02-28T06:31:48.681Z,8.20
2019-02-28T06:32:49.584Z,8.20
2019-02-28T06:33:50.595Z,8.20
2019-02-28T06:34:51.614Z,8.20
2019-02-28T06:35:53.679Z,8.20
2019-02-28T06:36:55.586Z,8.20
2019-02-28T06:37:56.600Z,8.20
2019-02-28T06:38:57.640Z,8.20
2019-02-28T06:39:59.326Z,8.20
2019-02-28T06:41:00.528Z,8.20
2019-02-28T06:42:01.559Z,8.20
2019-02-28T06:43:02.556Z,8.30
2019-02-28T06:44:03.568Z,8.30
2019-02-28T06:45:08.288Z,8.30
2019-02-28T06:46:09.383Z,8.20
2019-02-28T06:47:11.275Z,8.20
2019-02-28T06:48:13.444Z,8.20
2019-02-28T06:49:14.459Z,8.30
2019-02-28T06:50:15.481Z,8.30
2019-02-28T06:51:17.547Z,8.30
2019-02-28T06:52:18.719Z,8.30
2019-02-28T06:53:19.740Z,8.30
2019-02-28T06:54:20.753Z,8.30
2019-02-28T06:55:25.674Z,8.30
2019-02-28T06:56:26.683Z,8.30
2019-02-28T06:57:27.942Z,8.20
2019-02-28T06:58:30.480Z,8.20
2019-02-28T06:59:31.912Z,8.20
2019-02-28T07:00:32.936Z,8.20
2019-02-28T07:01:33.961Z,8.20
2019-02-28T07:02:34.984Z,8.30
2019-02-28T07:03:38.913Z,8.30
2019-02-28T07:04:38.935Z,8.30
2019-02-28T07:05:39.947Z,8.30
2019-02-28T07:06:40.972Z,8.30
2019-02-28T07:07:41.988Z,8.30
2019-02-28T07:08:43.000Z,8.40
2019-02-28T07:09:44.020Z,8.40
2019-02-28T07:10:48.444Z,8.40
2019-02-28T07:11:47.996Z,8.50
2019-02-28T07:12:49.016Z,8.50
2019-02-28T07:13:50.070Z,8.50
2019-02-28T07:14:51.087Z,8.60
2019-02-28T07:15:52.097Z,8.60
2019-02-28T07:16:53.116Z,8.60
2019-02-28T07:17:54.133Z,8.60
2019-02-28T07:18:55.164Z,8.60
2019-02-28T07:20:01.307Z,8.60
2019-02-28T07:20:59.100Z,8.70
2019-02-28T07:22:00.132Z,8.70
2019-02-28T07:23:01.145Z,8.70
2019-02-28T07:24:02.741Z,8.70
2019-02-28T07:25:09.447Z,8.80
2019-02-28T07:26:09.660Z,8.80
2019-02-28T07:27:10.714Z,8.80
2019-02-28T07:28:11.808Z,8.80
2019-02-28T07:29:12.826Z,8.80
2019-02-28T07:30:19.284Z,8.90
2019-02-28T07:31:21.728Z,8.90
2019-02-28T07:32:23.740Z,8.90
2019-02-28T07:33:24.795Z,9.00
2019-02-28T07:34:25.897Z,9.00
2019-02-28T07:35:32.914Z,9.00
2019-02-28T07:36:29.828Z,9.00
2019-02-28T07:37:30.849Z,9.10
2019-02-28T07:38:31.872Z,9.10
2019-02-28T07:39:32.892Z,9.20
2019-02-28T07:40:33.916Z,9.20
2019-02-28T07:41:34.928Z,9.20
2019-02-28T07:42:37.566Z,9.30
2019-02-28T07:43:38.863Z,9.30
2019-02-28T07:44:40.208Z,9.30
2019-02-28T07:45:41.216Z,9.30
2019-02-28T07:46:43.311Z,9.40
2019-02-28T07:47:44.557Z,9.40
2019-02-28T07:48:45.898Z,9.40
2019-02-28T07:49:46.913Z,9.50
2019-02-28T07:50:47.924Z,9.50
2019-02-28T07:51:48.952Z,9.60
2019-02-28T07:52:49.972Z,9.60
2019-02-28T07:53:51.269Z,9.60
2019-02-28T07:54:55.522Z,9.60
2019-02-28T07:55:55.412Z,9.60
2019-02-28T07:56:56.416Z,9.60
2019-02-28T07:57:57.432Z,9.70
2019-02-28T07:58:58.449Z,9.70
2019-02-28T07:59:59.999Z,9.70
2019-02-28T08:01:01.196Z,9.70
2019-02-28T08:02:03.283Z,9.80
2019-02-28T08:03:05.023Z,9.80
2019-02-28T08:04:06.037Z,9.80
2019-02-28T08:05:10.367Z,9.90
2019-02-28T08:06:11.376Z,9.80
2019-02-28T08:07:14.772Z,9.90
2019-02-28T08:08:15.689Z,10.00
2019-02-28T08:09:25.053Z,10.00
2019-02-28T08:10:27.968Z,10.10
2019-02-28T08:11:28.968Z,10.10
2019-02-28T08:12:30.842Z,10.20
2019-02-28T08:13:34.652Z,10.20
2019-02-28T08:14:36.693Z,10.20
2019-02-28T08:15:37.710Z,10.30
2019-02-28T08:16:38.744Z,10.40
2019-02-28T08:17:40.599Z,10.40
2019-02-28T08:18:42.691Z,10.40
2019-02-28T08:19:43.812Z,10.40
2019-02-28T08:20:44.828Z,10.50
2019-02-28T08:21:50.235Z,10.50
2019-02-28T08:22:49.261Z,10.60
2019-02-28T08:23:50.275Z,10.60
2019-02-28T08:24:52.097Z,10.60
2019-02-28T08:25:53.300Z,10.70
2019-02-28T08:26:54.366Z,10.70
2019-02-28T08:27:59.186Z,10.70
2019-02-28T08:28:58.346Z,10.80
2019-02-28T08:29:59.352Z,10.80
2019-02-28T08:31:00.364Z,10.90
2019-02-28T08:32:06.715Z,10.90
2019-02-28T08:33:04.304Z,10.90
2019-02-28T08:34:05.367Z,11.00
2019-02-28T08:35:09.296Z,11.00
2019-02-28T08:36:12.520Z,11.00
2019-02-28T08:37:13.208Z,11.10
2019-02-28T08:38:14.267Z,11.10
2019-02-28T08:39:16.159Z,11.10
2019-02-28T08:40:19.804Z,11.20
2019-02-28T08:41:22.463Z,11.20
2019-02-28T08:42:23.751Z,11.20
2019-02-28T08:43:27.307Z,11.30
2019-02-28T08:44:27.726Z,11.30
2019-02-28T08:45:32.507Z,11.40
2019-02-28T08:46:31.692Z,11.40
2019-02-28T08:47:32.700Z,11.50
2019-02-28T08:48:34.933Z,11.50
2019-02-28T08:49:42.177Z,11.60
2019-02-28T08:50:39.070Z,11.60
2019-02-28T08:51:40.164Z,11.70
2019-02-28T08:52:42.263Z,11.80
2019-02-28T08:53:43.508Z,11.80
2019-02-28T08:54:44.521Z,11.90
2019-02-28T08:55:45.558Z,11.90
2019-02-28T08:56:49.737Z,11.90
2019-02-28T08:57:55.024Z,12.00
2019-02-28T08:58:52.449Z,12.00
2019-02-28T08:59:56.388Z,12.10
2019-02-28T09:00:56.398Z,12.10
2019-02-28T09:01:57.420Z,12.10
2019-02-28T09:02:58.432Z,12.20
2019-02-28T09:04:04.787Z,12.30
2019-02-28T09:05:06.611Z,12.30
2019-02-28T09:06:07.607Z,12.30
2019-02-28T09:07:08.753Z,12.40
2019-02-28T09:08:09.790Z,12.40
2019-02-28T09:09:11.431Z,12.50
2019-02-28T09:10:15.012Z,12.50
2019-02-28T09:11:20.636Z,12.50
2019-02-28T09:12:18.953Z,12.60
2019-02-28T09:13:19.960Z,12.60
2019-02-28T09:14:21.021Z,12.60
2019-02-28T09:15:22.149Z,12.70
2019-02-28T09:16:23.160Z,12.70
2019-02-28T09:17:24.176Z,12.80
2019-02-28T09:18:25.203Z,12.80
2019-02-28T09:19:26.231Z,12.80
2019-02-28T09:20:27.255Z,12.90
2019-02-28T09:21:28.272Z,13.00
2019-02-28T09:22:29.437Z,13.00
2019-02-28T09:23:30.446Z,13.10
2019-02-28T09:24:31.474Z,13.10
2019-02-28T09:25:32.480Z,13.20
2019-02-28T09:26:33.497Z,13.20
2019-02-28T09:27:35.309Z,13.30
2019-02-28T09:28:37.440Z,13.40
2019-02-28T09:29:38.473Z,13.40
2019-02-28T09:30:45.206Z,13.50
2019-02-28T09:31:46.220Z,13.60
2019-02-28T09:32:48.201Z,13.60
2019-02-28T09:33:49.880Z,13.70
2019-02-28T09:34:50.888Z,13.80
2019-02-28T09:35:51.921Z,13.80
2019-02-28T09:36:56.666Z,13.80
2019-02-28T09:37:55.877Z,13.90
2019-02-28T09:38:58.995Z,13.90
2019-02-28T09:39:59.837Z,14.00
2019-02-28T09:41:01.466Z,14.00
2019-02-28T09:42:03.768Z,14.10
2019-02-28T09:43:04.795Z,14.10
2019-02-28T09:44:07.064Z,14.20
2019-02-28T09:45:11.460Z,14.20
2019-02-28T09:46:15.500Z,14.20
2019-02-28T09:47:15.460Z,14.30
2019-02-28T09:48:16.481Z,14.40
2019-02-28T09:49:17.509Z,14.40
2019-02-28T09:50:22.529Z,14.40
2019-02-28T09:51:22.644Z,14.50
2019-02-28T09:52:23.655Z,14.50
2019-02-28T09:53:24.672Z,14.60
2019-02-28T09:54:25.692Z,14.70
2019-02-28T09:55:26.709Z,14.70
2019-02-28T09:56:27.739Z,14.70
2019-02-28T09:57:30.204Z,14.80
2019-02-28T09:58:33.299Z,14.80
2019-02-28T09:59:37.761Z,14.90
2019-02-28T10:00:37.253Z,14.90
2019-02-28T10:01:38.272Z,15.00
2019-02-28T10:02:40.425Z,15.00
2019-02-28T10:03:42.296Z,15.10
2019-02-28T10:04:43.393Z,15.10
2019-02-28T10:05:44.425Z,15.10
2019-02-28T10:06:48.471Z,15.20
2019-02-28T10:07:48.594Z,15.30
2019-02-28T10:08:49.720Z,15.30
2019-02-28T10:09:50.744Z,15.40
2019-02-28T10:10:52.469Z,15.40
2019-02-28T10:11:54.693Z,15.50
2019-02-28T10:12:56.867Z,15.50
2019-02-28T10:13:58.248Z,15.60
2019-02-28T10:15:00.552Z,15.70
2019-02-28T10:16:02.321Z,15.80
2019-02-28T10:17:03.476Z,15.80
2019-02-28T10:18:05.252Z,15.90
2019-02-28T10:19:06.508Z,15.90
2019-02-28T10:20:11.332Z,16.00
2019-02-28T10:21:12.340Z,16.10
2019-02-28T10:22:13.656Z,16.10
2019-02-28T10:23:14.665Z,16.20
2019-02-28T10:24:15.680Z,16.30
2019-02-28T10:25:16.708Z,16.30
2019-02-28T10:26:17.945Z,16.40
2019-02-28T10:27:19.037Z,16.50
2019-02-28T10:28:20.056Z,16.60
2019-02-28T10:29:21.091Z,16.60
2019-02-28T10:30:31.304Z,16.70
2019-02-28T10:31:36.127Z,16.80
2019-02-28T10:32:28.953Z,16.90
2019-02-28T10:33:29.977Z,16.90
2019-02-28T10:34:30.992Z,17.00
2019-02-28T10:35:33.460Z,17.10
2019-02-28T10:36:34.992Z,17.10
2019-02-28T10:37:36.104Z,17.20
2019-02-28T10:38:37.126Z,17.20
2019-02-28T10:39:40.244Z,17.20
2019-02-28T10:40:41.088Z,17.30
2019-02-28T10:41:42.104Z,17.30
2019-02-28T10:42:43.125Z,17.40
2019-02-28T10:43:49.795Z,17.40
2019-02-28T10:44:47.054Z,17.40
2019-02-28T10:45:48.084Z,17.50
2019-02-28T10:46:50.292Z,17.50
2019-02-28T10:47:52.016Z,17.50
2019-02-28T10:48:53.033Z,17.60
2019-02-28T10:49:55.380Z,17.60
2019-02-28T10:50:57.086Z,17.60
2019-02-28T10:51:59.448Z,17.60
2019-02-28T10:53:05.473Z,17.70
2019-02-28T10:54:04.372Z,17.70
2019-02-28T10:55:10.950Z,17.70
2019-02-28T10:56:11.975Z,17.80
2019-02-28T10:57:12.991Z,17.80
2019-02-28T10:58:15.520Z,17.80
2019-02-28T10:59:16.923Z,17.80
2019-02-28T11:00:32.824Z,17.90
2019-02-28T11:01:33.414Z,17.90
2019-02-28T11:02:34.533Z,17.90
2019-02-28T11:03:35.555Z,18.00
2019-02-28T11:04:42.876Z,18.00
2019-02-28T11:05:42.496Z,18.00
2019-02-28T11:06:43.614Z,18.10
2019-02-28T11:07:46.197Z,18.10
2019-02-28T11:08:48.155Z,18.20
2019-02-28T11:09:51.627Z,18.20
2019-02-28T11:10:52.730Z,18.20
2019-02-28T11:11:53.851Z,18.30
2019-02-28T11:12:57.137Z,18.30
2019-02-28T11:13:57.788Z,18.30
2019-02-28T11:14:58.884Z,18.40
2019-02-28T11:15:59.976Z,18.30
2019-02-28T11:17:01.019Z,18.40
2019-02-28T11:18:02.331Z,18.40
2019-02-28T11:19:03.543Z,18.50
2019-02-28T11:20:09.613Z,18.50
2019-02-28T11:21:11.080Z,18.50
2019-02-28T11:22:13.609Z,18.60
2019-02-28T11:23:15.914Z,18.60
2019-02-28T11:24:17.140Z,18.60
2019-02-28T11:25:21.491Z,18.60
2019-02-28T11:26:22.632Z,18.70
2019-02-28T11:27:23.688Z,18.70
2019-02-28T11:28:28.008Z,18.70
2019-02-28T11:29:27.708Z,18.60
2019-02-28T11:30:30.202Z,18.60
2019-02-28T11:31:31.324Z,18.60
2019-02-28T11:32:32.344Z,18.70
2019-02-28T11:33:33.484Z,18.70
2019-02-28T11:34:34.604Z,18.80
2019-02-28T11:35:35.716Z,18.80
2019-02-28T11:36:36.776Z,18.80
2019-02-28T11:37:38.284Z,18.90
2019-02-28T11:38:39.582Z,18.90
2019-02-28T11:39:40.597Z,18.90
2019-02-28T11:40:43.657Z,19.10
2019-02-28T11:41:44.890Z,19.00
2019-02-28T11:42:45.916Z,19.10
2019-02-28T11:43:46.931Z,19.10
2019-02-28T11:44:47.957Z,19.10
2019-02-28T11:45:49.087Z,19.10
2019-02-28T11:46:50.121Z,19.20
2019-02-28T11:47:52.724Z,19.20
2019-02-28T11:48:53.928Z,19.20
2019-02-28T11:49:56.057Z,19.20
2019-02-28T11:50:57.095Z,19.20
2019-02-28T11:51:58.116Z,19.20
2019-02-28T11:53:03.107Z,19.20
2019-02-28T11:54:02.044Z,19.20
2019-02-28T11:55:11.675Z,19.30
2019-02-28T11:56:12.731Z,19.30
2019-02-28T11:57:13.731Z,19.30
2019-02-28T11:58:17.625Z,19.40
2019-02-28T11:59:17.692Z,19.40
2019-02-28T12:00:35.675Z,19.40
2019-02-28T12:01:36.638Z,19.40
2019-02-28T12:02:37.720Z,19.40
2019-02-28T12:03:38.741Z,19.40
2019-02-28T12:04:40.458Z,19.40
2019-02-28T12:05:42.283Z,19.40
2019-02-28T12:06:43.308Z,19.40
2019-02-28T12:07:44.324Z,19.40
2019-02-28T12:08:45.760Z,19.40
2019-02-28T12:09:46.872Z,19.50
2019-02-28T12:10:47.888Z,19.50
2019-02-28T12:11:49.041Z,19.50
2019-02-28T12:12:50.174Z,19.50
2019-02-28T12:13:51.589Z,19.40
2019-02-28T12:14:54.098Z,19.40
2019-02-28T12:15:55.223Z,19.40
2019-02-28T12:16:56.474Z,19.50
2019-02-28T12:18:03.645Z,19.50
2019-02-28T12:19:00.403Z,19.50
2019-02-28T12:20:03.717Z,19.50
2019-02-28T12:21:05.050Z,19.50
2019-02-28T12:22:09.012Z,19.50
2019-02-28T12:23:09.084Z,19.40
2019-02-28T12:24:10.100Z,19.40
2019-02-28T12:25:13.641Z,19.50
2019-02-28T12:26:17.778Z,19.50
2019-02-28T12:27:17.580Z,19.50
2019-02-28T12:28:18.595Z,19.50
2019-02-28T12:29:19.610Z,19.60
2019-02-28T12:30:27.597Z,19.50
2019-02-28T12:31:28.617Z,19.50
2019-02-28T12:32:29.637Z,19.60
2019-02-28T12:33:30.664Z,19.60
2019-02-28T12:34:31.784Z,19.60
2019-02-28T12:35:40.009Z,19.70
2019-02-28T12:36:36.230Z,19.70
2019-02-28T12:37:37.289Z,19.70
2019-02-28T12:38:38.308Z,19.80
2019-02-28T12:39:39.356Z,19.90
2019-02-28T12:40:42.561Z,19.90
2019-02-28T12:41:44.242Z,20.00
2019-02-28T12:42:45.252Z,20.00
2019-02-28T12:43:46.276Z,20.00
2019-02-28T12:44:49.034Z,20.00
2019-02-28T12:45:50.196Z,20.00
2019-02-28T12:46:51.212Z,20.00
2019-02-28T12:47:52.344Z,20.00
2019-02-28T12:48:53.357Z,20.00
2019-02-28T12:49:57.035Z,20.00
2019-02-28T12:50:57.297Z,20.00
2019-02-28T12:51:58.328Z,20.10
2019-02-28T12:53:00.425Z,20.10
2019-02-28T12:54:01.445Z,20.10
2019-02-28T12:55:05.467Z,20.20
2019-02-28T12:56:06.499Z,20.10
2019-02-28T12:57:07.567Z,20.10
2019-02-28T12:58:10.484Z,20.10
2019-02-28T12:59:11.503Z,20.00
2019-02-28T13:00:15.737Z,20.10
2019-02-28T13:01:16.751Z,20.10
2019-02-28T13:02:17.813Z,20.10
2019-02-28T13:03:20.177Z,20.10
2019-02-28T13:04:21.777Z,20.00
2019-02-28T13:05:22.817Z,20.00
2019-02-28T13:06:24.805Z,20.00
2019-02-28T13:07:26.520Z,19.90
2019-02-28T13:08:27.517Z,20.00
2019-02-28T13:09:30.206Z,20.00
2019-02-28T13:10:31.503Z,20.00
2019-02-28T13:11:35.883Z,20.00
2019-02-28T13:12:35.748Z,20.00
2019-02-28T13:13:37.127Z,20.10
2019-02-28T13:14:40.735Z,20.10
2019-02-28T13:15:41.242Z,20.10
2019-02-28T13:16:42.281Z,20.10
2019-02-28T13:17:43.332Z,20.10
2019-02-28T13:18:44.514Z,20.10
2019-02-28T13:19:45.582Z,20.10
2019-02-28T13:20:46.900Z,20.10
2019-02-28T13:21:47.943Z,20.20
2019-02-28T13:22:49.068Z,20.20
2019-02-28T13:23:50.209Z,20.20
2019-02-28T13:24:51.213Z,20.20
2019-02-28T13:25:55.788Z,20.30
2019-02-28T13:26:55.150Z,20.30
2019-02-28T13:27:56.168Z,20.20